createdAt,value
2022-09-23T00:00:40.936Z,0.00
2022-09-23T00:01:41.276Z,0.00
2022-09-23T00:02:41.666Z,0.00
2022-09-23T00:03:41.822Z,0.00
2022-09-23T00:04:42.048Z,0.00
2022-09-23T00:05:42.310Z,0.00
2022-09-23T00:06:42.552Z,0.00
2022-09-23T00:07:42.795Z,0.00
2022-09-23T00:08:43.050Z,0.00
2022-09-23T00:09:43.305Z,0.00
2022-09-23T00:10:43.531Z,0.00
2022-09-23T00:11:43.780Z,0.00
2022-09-23T00:12:44.034Z,0.00
2022-09-23T00:13:44.323Z,0.00
2022-09-23T00:14:44.561Z,0.00
2022-09-23T00:15:44.779Z,0.00
2022-09-23T00:16:45.289Z,0.00
2022-09-23T00:17:45.370Z,0.00
2022-09-23T00:18:45.602Z,0.00
2022-09-23T00:19:45.872Z,0.00
2022-09-23T00:20:46.122Z,0.00
2022-09-23T00:21:46.380Z,0.00
2022-09-23T00:22:46.604Z,0.00
2022-09-23T00:23:46.840Z,0.00
2022-09-23T00:24:47.082Z,0.00
2022-09-23T00:25:47.311Z,0.00
2022-09-23T00:26:47.587Z,0.00
2022-09-23T00:27:47.855Z,0.00
2022-09-23T00:28:48.110Z,0.00
2022-09-23T00:29:48.324Z,0.00
2022-09-23T00:30:48.631Z,0.00
2022-09-23T00:31:48.875Z,0.00
2022-09-23T00:32:49.115Z,0.00
2022-09-23T00:33:49.341Z,0.00
2022-09-23T00:34:49.594Z,0.00
2022-09-23T00:35:49.843Z,0.00
2022-09-23T00:36:50.088Z,0.00
2022-09-23T00:37:50.316Z,0.00
2022-09-23T00:38:50.569Z,0.00
2022-09-23T00:39:50.772Z,0.00
2022-09-23T00:40:51.265Z,0.00
2022-09-23T00:41:51.495Z,0.00
2022-09-23T00:42:51.709Z,0.00
2022-09-23T00:43:52.057Z,0.00
2022-09-23T00:44:52.321Z,0.00
2022-09-23T00:45:52.609Z,0.00
2022-09-23T00:46:52.867Z,0.00
2022-09-23T00:47:53.188Z,0.00
2022-09-23T00:48:53.419Z,0.00
2022-09-23T00:49:53.669Z,0.00
2022-09-23T00:50:53.931Z,0.00
2022-09-23T00:51:54.176Z,0.00
2022-09-23T00:52:54.463Z,0.00
2022-09-23T00:53:54.724Z,0.00
2022-09-23T00:54:54.992Z,0.00
2022-09-23T00:55:55.279Z,0.00
2022-09-23T00:56:55.597Z,0.00
2022-09-23T00:57:55.808Z,0.00
2022-09-23T00:58:56.089Z,0.00
2022-09-23T00:59:56.328Z,0.00
2022-09-23T01:00:56.740Z,0.00
2022-09-23T01:01:56.892Z,0.00
2022-09-23T01:02:58.097Z,0.00
2022-09-23T01:03:57.399Z,0.00
2022-09-23T01:04:57.672Z,0.00
2022-09-23T01:05:57.981Z,0.00
2022-09-23T01:06:58.204Z,0.00
2022-09-23T01:07:58.442Z,0.00
2022-09-23T01:08:58.755Z,0.00
2022-09-23T01:09:59.003Z,0.00
2022-09-23T01:10:59.262Z,0.00
2022-09-23T01:11:59.502Z,0.00
2022-09-23T01:12:59.782Z,0.00
2022-09-23T01:14:00.008Z,0.00
2022-09-23T01:15:00.241Z,0.00
2022-09-23T01:16:00.502Z,0.00
2022-09-23T01:17:00.786Z,0.00
2022-09-23T01:18:01.023Z,0.00
2022-09-23T01:19:01.279Z,0.00
2022-09-23T01:20:01.494Z,0.00
2022-09-23T01:21:01.853Z,0.00
2022-09-23T01:22:02.093Z,0.00
2022-09-23T01:23:02.333Z,0.00
2022-09-23T01:24:02.657Z,0.00
2022-09-23T01:25:02.894Z,0.00
2022-09-23T01:26:03.137Z,0.00
2022-09-23T01:27:03.366Z,0.00
2022-09-23T01:28:03.597Z,0.00
2022-09-23T01:29:04.001Z,0.00
2022-09-23T01:30:04.271Z,0.00
2022-09-23T01:31:04.587Z,0.00
2022-09-23T01:32:04.876Z,0.00
2022-09-23T01:33:05.107Z,0.00
2022-09-23T01:34:05.329Z,0.00
2022-09-23T01:35:05.696Z,0.00
2022-09-23T01:36:05.909Z,0.00
2022-09-23T01:37:06.242Z,0.00
2022-09-23T01:38:06.586Z,0.00
2022-09-23T01:39:07.101Z,0.00
2022-09-23T01:40:07.286Z,0.00
2022-09-23T01:41:07.509Z,0.00
2022-09-23T01:42:07.846Z,0.00
2022-09-23T01:43:08.188Z,0.00
2022-09-23T01:44:08.475Z,0.00
2022-09-23T01:45:08.747Z,0.00
2022-09-23T01:46:08.997Z,0.00
2022-09-23T01:47:09.262Z,0.00
2022-09-23T01:48:09.536Z,0.00
2022-09-23T01:49:09.809Z,0.00
2022-09-23T01:50:10.078Z,0.00
2022-09-23T01:51:10.326Z,0.00
2022-09-23T01:52:10.518Z,0.00
2022-09-23T01:53:10.927Z,0.00
2022-09-23T01:54:11.171Z,0.00
2022-09-23T01:55:11.572Z,0.00
2022-09-23T01:56:11.660Z,0.00
2022-09-23T01:57:11.891Z,0.00
2022-09-23T01:58:12.119Z,0.00
2022-09-23T01:59:12.369Z,0.00
2022-09-23T02:00:12.650Z,0.00
2022-09-23T02:01:12.934Z,0.00
2022-09-23T02:02:13.193Z,0.00
2022-09-23T02:03:13.413Z,0.00
2022-09-23T02:04:21.380Z,0.00
2022-09-23T02:05:13.954Z,0.00
2022-09-23T02:06:14.297Z,0.00
2022-09-23T02:07:14.522Z,0.00
2022-09-23T02:08:14.866Z,0.00
2022-09-23T02:09:15.204Z,0.00
2022-09-23T02:10:15.547Z,0.00
2022-09-23T02:11:15.754Z,0.00
2022-09-23T02:12:16.092Z,0.00
2022-09-23T02:13:16.309Z,0.00
2022-09-23T02:14:16.658Z,0.00
2022-09-23T02:15:17.026Z,0.00
2022-09-23T02:16:17.244Z,0.00
2022-09-23T02:17:17.510Z,0.00
2022-09-23T02:18:17.729Z,0.00
2022-09-23T02:19:18.064Z,0.00
2022-09-23T02:20:18.388Z,0.00
2022-09-23T02:21:18.716Z,0.00
2022-09-23T02:22:19.117Z,0.00
2022-09-23T02:23:19.399Z,0.00
2022-09-23T02:24:19.765Z,0.00
2022-09-23T02:25:19.850Z,0.00
2022-09-23T02:26:20.376Z,0.00
2022-09-23T02:27:20.440Z,0.00
2022-09-23T02:28:20.650Z,0.00
2022-09-23T02:29:20.991Z,0.00
2022-09-23T02:30:21.354Z,0.00
2022-09-23T02:31:21.645Z,0.00
2022-09-23T02:32:21.884Z,0.00
2022-09-23T02:33:22.208Z,0.00
2022-09-23T02:34:22.532Z,0.00
2022-09-23T02:35:22.884Z,0.00
2022-09-23T02:36:23.153Z,0.00
2022-09-23T02:37:23.356Z,0.00
2022-09-23T02:38:23.692Z,0.00
2022-09-23T02:39:24.014Z,0.00
2022-09-23T02:40:24.415Z,0.00
2022-09-23T02:41:24.631Z,0.00
2022-09-23T02:42:24.993Z,0.00
2022-09-23T02:43:25.304Z,0.00
2022-09-23T02:44:25.643Z,0.00
2022-09-23T02:45:25.991Z,0.00
2022-09-23T02:46:26.212Z,0.00
2022-09-23T02:47:26.433Z,0.00
2022-09-23T02:48:26.772Z,0.00
2022-09-23T02:49:27.102Z,0.00
2022-09-23T02:50:27.470Z,0.00
2022-09-23T02:51:27.716Z,0.00
2022-09-23T02:52:28.032Z,0.00
2022-09-23T02:53:28.354Z,0.00
2022-09-23T02:54:28.723Z,0.00
2022-09-23T02:55:28.950Z,0.00
2022-09-23T02:56:30.164Z,0.00
2022-09-23T02:57:29.452Z,0.00
2022-09-23T02:58:29.665Z,0.00
2022-09-23T02:59:30.032Z,0.00
2022-09-23T03:00:30.523Z,0.00
2022-09-23T03:01:30.813Z,0.00
2022-09-23T03:02:31.056Z,0.00
2022-09-23T03:03:31.305Z,0.00
2022-09-23T03:04:31.554Z,0.00
2022-09-23T03:05:31.790Z,0.00
2022-09-23T03:06:32.141Z,0.00
2022-09-23T03:07:32.375Z,0.00
2022-09-23T03:08:32.588Z,0.00
2022-09-23T03:09:32.928Z,0.00
2022-09-23T03:10:33.362Z,0.00
2022-09-23T03:11:33.549Z,0.00
2022-09-23T03:12:33.875Z,0.00
2022-09-23T03:13:34.224Z,0.00
2022-09-23T03:14:34.547Z,0.00
2022-09-23T03:15:34.876Z,0.00
2022-09-23T03:16:35.244Z,0.00
2022-09-23T03:17:35.563Z,0.00
2022-09-23T03:18:35.904Z,0.00
2022-09-23T03:19:36.132Z,0.00
2022-09-23T03:20:36.479Z,0.00
2022-09-23T03:21:36.738Z,0.00
2022-09-23T03:22:36.970Z,0.00
2022-09-23T03:23:37.205Z,0.00
2022-09-23T03:24:37.441Z,20.00
2022-09-23T03:25:37.842Z,20.00
2022-09-23T03:26:37.909Z,0.00
2022-09-23T03:27:38.275Z,0.00
2022-09-23T03:28:38.667Z,0.00
2022-09-23T03:29:38.861Z,0.00
2022-09-23T03:30:39.079Z,0.00
2022-09-23T03:31:39.454Z,0.00
2022-09-23T03:32:39.659Z,0.00
2022-09-23T03:33:39.992Z,0.00
2022-09-23T03:34:40.369Z,0.00
2022-09-23T03:35:40.580Z,0.00
2022-09-23T03:36:40.921Z,0.00
2022-09-23T03:37:41.247Z,0.00
2022-09-23T03:38:41.594Z,0.00
2022-09-23T03:39:41.953Z,0.00
2022-09-23T03:40:42.281Z,0.00
2022-09-23T03:41:42.481Z,0.00
2022-09-23T03:42:42.702Z,0.00
2022-09-23T03:43:43.087Z,0.00
2022-09-23T03:44:43.332Z,0.00
2022-09-23T03:45:44.559Z,0.00
2022-09-23T03:46:43.803Z,0.00
2022-09-23T03:47:44.131Z,0.00
2022-09-23T03:48:44.463Z,0.00
2022-09-23T03:49:44.813Z,0.00
2022-09-23T03:50:45.142Z,0.00
2022-09-23T03:51:45.472Z,0.00
2022-09-23T03:52:45.832Z,0.00
2022-09-23T03:53:46.034Z,0.00
2022-09-23T03:54:46.372Z,0.00
2022-09-23T03:55:46.698Z,0.00
2022-09-23T03:56:47.037Z,0.00
2022-09-23T03:57:47.375Z,0.00
2022-09-23T03:58:47.582Z,0.00
2022-09-23T03:59:47.925Z,0.00
2022-09-23T04:00:48.196Z,0.00
2022-09-23T04:01:48.418Z,0.00
2022-09-23T04:02:48.766Z,0.00
2022-09-23T04:03:49.081Z,0.00
2022-09-23T04:04:49.468Z,0.00
2022-09-23T04:05:49.708Z,0.00
2022-09-23T04:06:50.096Z,0.00
2022-09-23T04:07:50.307Z,0.00
2022-09-23T04:08:50.725Z,16.00
2022-09-23T04:09:50.963Z,20.00
2022-09-23T04:10:54.776Z,20.00
2022-09-23T04:11:51.417Z,20.00
2022-09-23T04:12:51.788Z,20.00
2022-09-23T04:13:51.997Z,20.00
2022-09-23T04:14:52.365Z,20.00
2022-09-23T04:15:52.583Z,20.00
2022-09-23T04:16:52.940Z,20.00
2022-09-23T04:17:53.178Z,16.00
2022-09-23T04:18:53.914Z,20.00
2022-09-23T04:19:53.692Z,16.00
2022-09-23T04:20:53.937Z,20.00
2022-09-23T04:21:54.166Z,20.00
2022-09-23T04:22:54.529Z,20.00
2022-09-23T04:23:54.750Z,20.00
2022-09-23T04:24:55.088Z,24.00
2022-09-23T04:25:55.434Z,4.00
2022-09-23T04:26:55.768Z,4.00
2022-09-23T04:27:56.109Z,8.00
2022-09-23T04:28:56.441Z,8.00
2022-09-23T04:29:56.801Z,8.00
2022-09-23T04:30:57.017Z,12.00
2022-09-23T04:31:57.426Z,16.00
2022-09-23T04:32:57.668Z,20.00
2022-09-23T04:33:58.103Z,20.00
2022-09-23T04:34:58.162Z,24.00
2022-09-23T04:35:58.382Z,28.00
2022-09-23T04:36:58.743Z,32.00
2022-09-23T04:37:58.989Z,36.00
2022-09-23T04:38:59.362Z,40.00
2022-09-23T04:39:59.542Z,48.00
2022-09-23T04:40:59.890Z,56.00
2022-09-23T04:42:00.232Z,64.00
2022-09-23T04:43:00.484Z,72.00
2022-09-23T04:44:00.750Z,80.00
2022-09-23T04:45:00.961Z,92.00
2022-09-23T04:46:01.384Z,100.00
2022-09-23T04:47:01.676Z,112.00
2022-09-23T04:48:01.974Z,124.00
2022-09-23T04:49:02.273Z,140.00
2022-09-23T04:50:02.515Z,148.00
2022-09-23T04:51:02.761Z,168.00
2022-09-23T04:52:02.993Z,184.00
2022-09-23T04:53:03.243Z,204.00
2022-09-23T04:54:03.483Z,220.00
2022-09-23T04:55:06.069Z,240.00
2022-09-23T04:56:05.065Z,264.00
2022-09-23T04:57:04.374Z,288.00
2022-09-23T04:58:04.703Z,312.00
2022-09-23T04:59:04.975Z,340.00
2022-09-23T05:00:05.207Z,372.00
2022-09-23T05:01:05.567Z,404.00
2022-09-23T05:02:05.791Z,436.00
2022-09-23T05:03:06.046Z,460.00
2022-09-23T05:04:06.324Z,492.00
2022-09-23T05:05:06.586Z,528.00
2022-09-23T05:06:06.832Z,568.00
2022-09-23T05:07:07.080Z,608.00
2022-09-23T05:08:07.317Z,656.00
2022-09-23T05:09:07.844Z,700.00
2022-09-23T05:10:07.846Z,740.00
2022-09-23T05:11:08.096Z,780.00
2022-09-23T05:12:08.339Z,820.00
2022-09-23T05:13:08.587Z,856.00
2022-09-23T05:14:08.858Z,888.00
2022-09-23T05:15:09.115Z,916.00
2022-09-23T05:16:09.394Z,944.00
2022-09-23T05:17:09.639Z,968.00
2022-09-23T05:18:09.880Z,1000.00
2022-09-23T05:19:10.214Z,1024.00
2022-09-23T05:20:10.347Z,1060.00
2022-09-23T05:21:10.607Z,1084.00
2022-09-23T05:22:10.877Z,1112.00
2022-09-23T05:23:11.190Z,1144.00
2022-09-23T05:24:11.457Z,1168.00
2022-09-23T05:25:11.709Z,1184.00
2022-09-23T05:26:12.042Z,1196.00
2022-09-23T05:27:12.311Z,1200.00
2022-09-23T05:28:12.558Z,1204.00
2022-09-23T05:29:12.837Z,1208.00
2022-09-23T05:30:13.136Z,1224.00
2022-09-23T05:31:19.332Z,1240.00
2022-09-23T05:32:14.742Z,1252.00
2022-09-23T05:33:14.050Z,1276.00
2022-09-23T05:34:14.322Z,1296.00
2022-09-23T05:35:14.579Z,1304.00
2022-09-23T05:36:14.832Z,1308.00
2022-09-23T05:37:15.092Z,1316.00
2022-09-23T05:38:15.368Z,1328.00
2022-09-23T05:39:15.731Z,1364.00
2022-09-23T05:40:15.915Z,1388.00
2022-09-23T05:41:16.156Z,1412.00
2022-09-23T05:42:16.398Z,1488.00
2022-09-23T05:43:16.662Z,1564.00
2022-09-23T05:44:16.993Z,1616.00
2022-09-23T05:45:17.219Z,1632.00
2022-09-23T05:46:17.517Z,1600.00
2022-09-23T05:47:17.825Z,1552.00
2022-09-23T05:48:18.095Z,1528.00
2022-09-23T05:49:18.352Z,1516.00
2022-09-23T05:50:18.597Z,1512.00
2022-09-23T05:51:18.873Z,1512.00
2022-09-23T05:52:19.139Z,1504.00
2022-09-23T05:53:19.411Z,1496.00
2022-09-23T05:54:19.683Z,1464.00
2022-09-23T05:55:19.952Z,1484.00
2022-09-23T05:56:20.355Z,1492.00
2022-09-23T05:57:20.495Z,1464.00
2022-09-23T05:58:20.734Z,1472.00
2022-09-23T05:59:21.083Z,1524.00
2022-09-23T06:00:21.217Z,1512.00
2022-09-23T06:01:21.597Z,1536.00
2022-09-23T06:02:21.850Z,1592.00
2022-09-23T06:03:22.178Z,1636.00
2022-09-23T06:04:22.374Z,1660.00
2022-09-23T06:05:22.638Z,1632.00
2022-09-23T06:06:22.896Z,1664.00
2022-09-23T06:07:23.168Z,1696.00
2022-09-23T06:08:23.419Z,1712.00
2022-09-23T06:09:23.674Z,1692.00
2022-09-23T06:10:23.948Z,1652.00
2022-09-23T06:11:24.217Z,1764.00
2022-09-23T06:12:24.478Z,1792.00
2022-09-23T06:13:24.751Z,1804.00
2022-09-23T06:14:25.026Z,1812.00
2022-09-23T06:15:25.290Z,1824.00
2022-09-23T06:16:25.618Z,1836.00
2022-09-23T06:17:25.859Z,1848.00
2022-09-23T06:18:26.126Z,1860.00
2022-09-23T06:19:26.386Z,1872.00
2022-09-23T06:20:26.642Z,1884.00
2022-09-23T06:21:26.901Z,1896.00
2022-09-23T06:22:27.813Z,1908.00
2022-09-23T06:23:27.499Z,1920.00
2022-09-23T06:24:31.375Z,1932.00
2022-09-23T06:25:28.100Z,1944.00
2022-09-23T06:26:28.351Z,1948.00
2022-09-23T06:27:28.631Z,1952.00
2022-09-23T06:28:28.904Z,1956.00
2022-09-23T06:29:29.165Z,1956.00
2022-09-23T06:30:29.420Z,1956.00
2022-09-23T06:31:29.747Z,1952.00
2022-09-23T06:32:29.919Z,1944.00
2022-09-23T06:33:36.627Z,1944.00
2022-09-23T06:34:36.894Z,1948.00
2022-09-23T06:35:31.711Z,1948.00
2022-09-23T06:36:42.685Z,1952.00
2022-09-23T06:37:32.371Z,1952.00
2022-09-23T06:38:31.714Z,1964.00
2022-09-23T06:39:32.015Z,1968.00
2022-09-23T06:40:32.300Z,1972.00
2022-09-23T06:41:32.524Z,1972.00
2022-09-23T06:42:32.786Z,1964.00
2022-09-23T06:43:33.035Z,1960.00
2022-09-23T06:44:33.297Z,1960.00
2022-09-23T06:45:33.566Z,1952.00
2022-09-23T06:46:34.041Z,1952.00
2022-09-23T06:47:34.175Z,1952.00
2022-09-23T06:48:34.429Z,1964.00
2022-09-23T06:49:34.713Z,1968.00
2022-09-23T06:50:34.969Z,1980.00
2022-09-23T06:51:35.214Z,1988.00
2022-09-23T06:52:35.495Z,2000.00
2022-09-23T06:53:35.807Z,2016.00
2022-09-23T06:54:36.107Z,2028.00
2022-09-23T06:55:36.366Z,2048.00
2022-09-23T06:56:39.557Z,2060.00
2022-09-23T06:57:37.498Z,2076.00
2022-09-23T06:58:37.197Z,2084.00
2022-09-23T06:59:37.476Z,2096.00
2022-09-23T07:00:37.727Z,2104.00
2022-09-23T07:01:38.207Z,2108.00
2022-09-23T07:02:38.402Z,2052.00
2022-09-23T07:03:38.659Z,2096.00
2022-09-23T07:04:38.965Z,2156.00
2022-09-23T07:05:39.218Z,2180.00
2022-09-23T07:06:39.470Z,2192.00
2022-09-23T07:07:39.782Z,2200.00
2022-09-23T07:08:40.027Z,2216.00
2022-09-23T07:09:40.291Z,2220.00
2022-09-23T07:10:40.570Z,2228.00
2022-09-23T07:11:40.836Z,2236.00
2022-09-23T07:12:41.081Z,2244.00
2022-09-23T07:13:41.354Z,2260.00
2022-09-23T07:14:41.660Z,2276.00
2022-09-23T07:15:41.976Z,2300.00
2022-09-23T07:16:42.280Z,2304.00
2022-09-23T07:17:42.550Z,2312.00
2022-09-23T07:18:42.854Z,2324.00
2022-09-23T07:19:43.142Z,2324.00
2022-09-23T07:20:43.483Z,2328.00
2022-09-23T07:21:43.744Z,2332.00
2022-09-23T07:22:43.954Z,2336.00
2022-09-23T07:23:44.282Z,2348.00
2022-09-23T07:24:44.604Z,2352.00
2022-09-23T07:25:44.925Z,2352.00
2022-09-23T07:26:45.850Z,2360.00
2022-09-23T07:27:45.623Z,2356.00
2022-09-23T07:28:45.856Z,2360.00
2022-09-23T07:29:48.910Z,2364.00
2022-09-23T07:30:57.534Z,2356.00
2022-09-23T07:31:47.712Z,2360.00
2022-09-23T07:32:49.219Z,2360.00
2022-09-23T07:33:47.401Z,2364.00
2022-09-23T07:34:48.407Z,2376.00
2022-09-23T07:35:48.024Z,2380.00
2022-09-23T07:36:48.287Z,2392.00
2022-09-23T07:37:48.564Z,2396.00
2022-09-23T07:38:48.826Z,2412.00
2022-09-23T07:39:49.104Z,2408.00
2022-09-23T07:40:49.443Z,2424.00
2022-09-23T07:41:49.711Z,2428.00
2022-09-23T07:42:49.956Z,2428.00
2022-09-23T07:43:50.232Z,2444.00
2022-09-23T07:44:50.488Z,2460.00
2022-09-23T07:45:50.788Z,2472.00
2022-09-23T07:46:51.142Z,2488.00
2022-09-23T07:47:51.270Z,2512.00
2022-09-23T07:48:51.530Z,2532.00
2022-09-23T07:49:51.801Z,2560.00
2022-09-23T07:50:52.048Z,2596.00
2022-09-23T07:51:52.338Z,2624.00
2022-09-23T07:52:52.608Z,2648.00
2022-09-23T07:53:52.914Z,2652.00
2022-09-23T07:54:53.151Z,2652.00
2022-09-23T07:55:53.434Z,2656.00
2022-09-23T07:56:53.756Z,2652.00
2022-09-23T07:57:54.023Z,2632.00
2022-09-23T07:58:54.307Z,2636.00
2022-09-23T07:59:54.543Z,2636.00
2022-09-23T08:00:54.826Z,2628.00
2022-09-23T08:01:55.168Z,2624.00
2022-09-23T08:02:55.477Z,2624.00
2022-09-23T08:03:55.755Z,2628.00
2022-09-23T08:04:56.014Z,2628.00
2022-09-23T08:05:56.293Z,2628.00
2022-09-23T08:06:56.587Z,2628.00
2022-09-23T08:07:56.845Z,2616.00
2022-09-23T08:08:57.186Z,2612.00
2022-09-23T08:09:57.454Z,2560.00
2022-09-23T08:10:57.705Z,2600.00
2022-09-23T08:11:57.957Z,2644.00
2022-09-23T08:12:58.215Z,2640.00
2022-09-23T08:13:58.559Z,2652.00
2022-09-23T08:14:58.716Z,2680.00
2022-09-23T08:15:59.668Z,2704.00
2022-09-23T08:16:59.528Z,2720.00
2022-09-23T08:17:59.532Z,2720.00
2022-09-23T08:18:59.962Z,2760.00
2022-09-23T08:20:00.123Z,2784.00
2022-09-23T08:21:00.398Z,2780.00
2022-09-23T08:22:00.682Z,2780.00
2022-09-23T08:23:00.973Z,2780.00
2022-09-23T08:24:01.240Z,2776.00
2022-09-23T08:25:01.552Z,2776.00
2022-09-23T08:26:01.830Z,2768.00
2022-09-23T08:27:02.070Z,2756.00
2022-09-23T08:28:02.332Z,2748.00
2022-09-23T08:29:02.593Z,2728.00
2022-09-23T08:30:02.904Z,2700.00
2022-09-23T08:31:03.312Z,2668.00
2022-09-23T08:32:03.561Z,2640.00
2022-09-23T08:33:03.846Z,2676.00
2022-09-23T08:34:04.149Z,2732.00
2022-09-23T08:35:04.409Z,2764.00
2022-09-23T08:36:04.684Z,2788.00
2022-09-23T08:37:05.044Z,2784.00
2022-09-23T08:38:05.319Z,2784.00
2022-09-23T08:39:05.435Z,2796.00
2022-09-23T08:40:05.752Z,2792.00
2022-09-23T08:41:06.009Z,2800.00
2022-09-23T08:42:06.285Z,2792.00
2022-09-23T08:43:06.522Z,2784.00
2022-09-23T08:44:06.830Z,2780.00
2022-09-23T08:45:07.115Z,2772.00
2022-09-23T08:46:07.428Z,2764.00
2022-09-23T08:47:07.682Z,2724.00
2022-09-23T08:48:12.712Z,2720.00
2022-09-23T08:49:09.236Z,2748.00
2022-09-23T08:50:08.437Z,2780.00
2022-09-23T08:51:08.767Z,2828.00
2022-09-23T08:52:09.067Z,2860.00
2022-09-23T08:53:09.341Z,2876.00
2022-09-23T08:54:09.640Z,2884.00
2022-09-23T08:55:09.958Z,2884.00
2022-09-23T08:56:11.197Z,2876.00
2022-09-23T08:57:10.549Z,2876.00
2022-09-23T08:58:26.762Z,2864.00
2022-09-23T08:59:12.082Z,2884.00
2022-09-23T09:00:11.299Z,2876.00
2022-09-23T09:01:11.581Z,2880.00
2022-09-23T09:02:11.891Z,2860.00
2022-09-23T09:03:12.140Z,2828.00
2022-09-23T09:04:12.776Z,2812.00
2022-09-23T09:05:12.768Z,2792.00
2022-09-23T09:06:12.923Z,2796.00
2022-09-23T09:07:35.339Z,2800.00
2022-09-23T09:08:14.392Z,2792.00
2022-09-23T09:09:13.823Z,2780.00
2022-09-23T09:10:13.972Z,2788.00
2022-09-23T09:11:14.263Z,2792.00
2022-09-23T09:12:14.537Z,2808.00
2022-09-23T09:13:14.825Z,2832.00
2022-09-23T09:14:15.560Z,2852.00
2022-09-23T09:15:15.385Z,2884.00
2022-09-23T09:16:15.729Z,2904.00
2022-09-23T09:17:15.921Z,2940.00
2022-09-23T09:18:16.440Z,2960.00
2022-09-23T09:19:16.505Z,2976.00
2022-09-23T09:20:16.669Z,2988.00
2022-09-23T09:21:16.927Z,3004.00
2022-09-23T09:22:17.196Z,3024.00
2022-09-23T09:23:17.487Z,3040.00
2022-09-23T09:24:17.786Z,3052.00
2022-09-23T09:25:18.098Z,3064.00
2022-09-23T09:26:18.347Z,3076.00
2022-09-23T09:27:18.611Z,3068.00
2022-09-23T09:28:18.890Z,3060.00
2022-09-23T09:29:36.165Z,3052.00
2022-09-23T09:30:20.573Z,3044.00
2022-09-23T09:31:19.784Z,3028.00
2022-09-23T09:32:20.050Z,2996.00
2022-09-23T09:33:20.309Z,2948.00
2022-09-23T09:34:20.571Z,2980.00
2022-09-23T09:35:20.822Z,2980.00
2022-09-23T09:36:21.108Z,2988.00
2022-09-23T09:37:21.425Z,3052.00
2022-09-23T09:38:21.661Z,3088.00
2022-09-23T09:39:26.121Z,3108.00
2022-09-23T09:40:22.339Z,3136.00
2022-09-23T09:41:22.650Z,3176.00
2022-09-23T09:42:22.835Z,3180.00
2022-09-23T09:43:23.162Z,3224.00
2022-09-23T09:44:23.455Z,3272.00
2022-09-23T09:45:23.742Z,3332.00
2022-09-23T09:46:24.049Z,3368.00
2022-09-23T09:47:24.443Z,3440.00
2022-09-23T09:48:24.584Z,3504.00
2022-09-23T09:49:24.778Z,3536.00
2022-09-23T09:50:25.035Z,3600.00
2022-09-23T09:51:25.320Z,3804.00
2022-09-23T09:52:25.738Z,3936.00
2022-09-23T09:53:25.824Z,4156.00
2022-09-23T09:54:26.093Z,4488.00
2022-09-23T09:55:26.374Z,4708.00
2022-09-23T09:56:26.683Z,4792.00
2022-09-23T09:57:28.685Z,4800.00
2022-09-23T09:58:27.320Z,4776.00
2022-09-23T09:59:27.590Z,4796.00
2022-09-23T10:00:27.860Z,4744.00
2022-09-23T10:01:28.173Z,4732.00
2022-09-23T10:02:28.403Z,4732.00
2022-09-23T10:03:28.671Z,4708.00
2022-09-23T10:04:29.087Z,4716.00
2022-09-23T10:05:29.156Z,4600.00
2022-09-23T10:06:29.471Z,4740.00
2022-09-23T10:07:29.733Z,4968.00
2022-09-23T10:08:29.989Z,5208.00
2022-09-23T10:09:30.253Z,5812.00
2022-09-23T10:10:33.251Z,6404.00
2022-09-23T10:11:30.783Z,6260.00
2022-09-23T10:12:32.067Z,6032.00
2022-09-23T10:13:31.436Z,5908.00
2022-09-23T10:14:31.638Z,5684.00
2022-09-23T10:15:31.926Z,5692.00
2022-09-23T10:16:32.418Z,5620.00
2022-09-23T10:17:32.534Z,5404.00
2022-09-23T10:18:32.865Z,5264.00
2022-09-23T10:19:33.269Z,5132.00
2022-09-23T10:20:33.468Z,5108.00
2022-09-23T10:21:33.724Z,5048.00
2022-09-23T10:22:34.055Z,5304.00
2022-09-23T10:23:34.396Z,5808.00
2022-09-23T10:24:34.657Z,5760.00
2022-09-23T10:25:35.156Z,5744.00
2022-09-23T10:26:35.269Z,5792.00
2022-09-23T10:27:35.555Z,5556.00
2022-09-23T10:28:35.877Z,5660.00
2022-09-23T10:29:36.168Z,6284.00
2022-09-23T10:30:36.553Z,6508.00
2022-09-23T10:31:36.664Z,6112.00
2022-09-23T10:32:36.931Z,5840.00
2022-09-23T10:33:37.291Z,5704.00
2022-09-23T10:34:37.521Z,5544.00
2022-09-23T10:35:37.702Z,5400.00
2022-09-23T10:36:42.378Z,5224.00
2022-09-23T10:37:39.312Z,5192.00
2022-09-23T10:38:38.633Z,5036.00
2022-09-23T10:39:38.927Z,5076.00
2022-09-23T10:40:39.270Z,5224.00
2022-09-23T10:41:39.456Z,5288.00
2022-09-23T10:42:39.709Z,5228.00
2022-09-23T10:43:40.009Z,5116.00
2022-09-23T10:44:40.251Z,5020.00
2022-09-23T10:45:42.718Z,4960.00
2022-09-23T10:46:40.851Z,4892.00
2022-09-23T10:47:41.067Z,4916.00
2022-09-23T10:48:41.416Z,5372.00
2022-09-23T10:49:41.655Z,5540.00
2022-09-23T10:50:41.915Z,5248.00
2022-09-23T10:51:42.191Z,5072.00
2022-09-23T10:52:42.567Z,5444.00
2022-09-23T10:53:42.797Z,5596.00
2022-09-23T10:54:43.048Z,5560.00
2022-09-23T10:55:43.319Z,5512.00
2022-09-23T10:56:43.624Z,5344.00
2022-09-23T10:57:43.890Z,5168.00
2022-09-23T10:58:44.152Z,4964.00
2022-09-23T10:59:44.442Z,4836.00
2022-09-23T11:00:44.701Z,4652.00
2022-09-23T11:01:45.079Z,4512.00
2022-09-23T11:02:45.205Z,4344.00
2022-09-23T11:03:45.478Z,4408.00
2022-09-23T11:04:45.843Z,4516.00
2022-09-23T11:05:46.075Z,4528.00
2022-09-23T11:06:46.373Z,4676.00
2022-09-23T11:07:47.545Z,4904.00
2022-09-23T11:08:46.869Z,5260.00
2022-09-23T11:09:47.119Z,5344.00
2022-09-23T11:10:47.408Z,5360.00
2022-09-23T11:11:47.694Z,5928.00
2022-09-23T11:12:47.973Z,6528.00
2022-09-23T11:13:52.144Z,7052.00
2022-09-23T11:14:49.753Z,7352.00
2022-09-23T11:15:48.844Z,7512.00
2022-09-23T11:16:50.155Z,7572.00
2022-09-23T11:17:49.504Z,7412.00
2022-09-23T11:18:49.668Z,7256.00
2022-09-23T11:19:50.022Z,6912.00
2022-09-23T11:20:50.234Z,6596.00
2022-09-23T11:21:50.490Z,6452.00
2022-09-23T11:22:50.769Z,6432.00
2022-09-23T11:23:51.067Z,6484.00
2022-09-23T11:24:51.271Z,6540.00
2022-09-23T11:25:51.526Z,6600.00
2022-09-23T11:26:51.784Z,6676.00
2022-09-23T11:27:52.060Z,6732.00
2022-09-23T11:28:52.323Z,6776.00
2022-09-23T11:29:52.575Z,6856.00
2022-09-23T11:30:52.947Z,6892.00
2022-09-23T11:31:56.191Z,6900.00
2022-09-23T11:32:54.339Z,6912.00
2022-09-23T11:33:53.627Z,6880.00
2022-09-23T11:34:55.047Z,6844.00
2022-09-23T11:35:54.168Z,6616.00
2022-09-23T11:36:54.438Z,6588.00
2022-09-23T11:37:54.716Z,6528.00
2022-09-23T11:38:55.745Z,6380.00
2022-09-23T11:39:55.252Z,6236.00
2022-09-23T11:40:55.580Z,6156.00
2022-09-23T11:41:55.733Z,6060.00
2022-09-23T11:42:57.464Z,5976.00
2022-09-23T11:43:56.283Z,5972.00
2022-09-23T11:44:56.736Z,5972.00
2022-09-23T11:45:56.960Z,6020.00
2022-09-23T11:46:57.219Z,6116.00
2022-09-23T11:47:57.508Z,6204.00
2022-09-23T11:48:57.773Z,6316.00
2022-09-23T11:49:58.044Z,6400.00
2022-09-23T11:50:59.100Z,6484.00
2022-09-23T11:51:58.582Z,6568.00
2022-09-23T11:52:58.856Z,6652.00
2022-09-23T11:54:01.713Z,6716.00
2022-09-23T11:54:59.512Z,6784.00
2022-09-23T11:55:59.694Z,6840.00
2022-09-23T11:57:00.122Z,6876.00
2022-09-23T11:58:00.479Z,6892.00
2022-09-23T11:59:00.713Z,6896.00
2022-09-23T12:00:01.093Z,6900.00
2022-09-23T12:01:01.645Z,6872.00
2022-09-23T12:02:13.353Z,6860.00
2022-09-23T12:03:05.858Z,6832.00
2022-09-23T12:04:12.722Z,6780.00
2022-09-23T12:05:03.585Z,6748.00
2022-09-23T12:06:02.784Z,6744.00
2022-09-23T12:07:03.098Z,6704.00
2022-09-23T12:08:03.808Z,6660.00
2022-09-23T12:09:03.629Z,6608.00
2022-09-23T12:10:03.907Z,6536.00
2022-09-23T12:11:04.300Z,6488.00
2022-09-23T12:12:04.401Z,6388.00
2022-09-23T12:13:04.665Z,6276.00
2022-09-23T12:14:04.930Z,6116.00
2022-09-23T12:15:05.202Z,5980.00
2022-09-23T12:16:05.462Z,5832.00
2022-09-23T12:17:05.778Z,5700.00
2022-09-23T12:18:06.071Z,5516.00
2022-09-23T12:19:06.334Z,5384.00
2022-09-23T12:20:06.584Z,5228.00
2022-09-23T12:21:06.873Z,5088.00
2022-09-23T12:22:07.090Z,4916.00
2022-09-23T12:23:07.394Z,4796.00
2022-09-23T12:24:07.687Z,4660.00
2022-09-23T12:25:07.916Z,4540.00
2022-09-23T12:26:08.174Z,4352.00
2022-09-23T12:27:08.477Z,4224.00
2022-09-23T12:28:08.747Z,4088.00
2022-09-23T12:29:09.010Z,3976.00
2022-09-23T12:30:09.293Z,3908.00
2022-09-23T12:31:09.707Z,3956.00
2022-09-23T12:32:09.814Z,3920.00
2022-09-23T12:33:10.115Z,3812.00
2022-09-23T12:34:10.428Z,3784.00
2022-09-23T12:35:10.740Z,3676.00